createdAt,value
2019-05-26T00:00:29.322Z,6.80
2019-05-26T00:03:05.443Z,9.70
2019-05-26T00:05:39.591Z,5.75
2019-05-26T00:08:11.606Z,6.58
2019-05-26T00:10:44.808Z,7.28
2019-05-26T00:13:19.107Z,4.58
2019-05-26T00:15:53.002Z,4.62
2019-05-26T00:18:25.055Z,7.22
2019-05-26T00:20:57.021Z,4.97
2019-05-26T00:23:28.995Z,5.40
2019-05-26T00:26:01.726Z,6.85
2019-05-26T00:28:34.754Z,6.65
2019-05-26T00:31:06.854Z,12.30
2019-05-26T00:33:39.886Z,5.60
2019-05-26T00:36:11.865Z,4.00
2019-05-26T00:38:43.866Z,3.42
2019-05-26T00:41:16.148Z,3.35
2019-05-26T00:43:48.224Z,4.10
2019-05-26T00:46:20.206Z,6.05
2019-05-26T00:48:52.196Z,3.00
2019-05-26T00:51:24.366Z,4.35
2019-05-26T00:53:56.438Z,5.25
2019-05-26T00:56:28.533Z,7.10
2019-05-26T00:59:01.354Z,9.20
2019-05-26T01:01:34.392Z,4.35
2019-05-26T01:04:08.978Z,3.87
2019-05-26T01:06:40.946Z,5.70
2019-05-26T01:09:14.646Z,5.05
2019-05-26T01:11:46.733Z,4.17
2019-05-26T01:14:20.358Z,7.35
2019-05-26T01:16:56.149Z,4.00
2019-05-26T01:19:28.563Z,6.35
2019-05-26T01:22:01.672Z,5.05
2019-05-26T01:24:33.649Z,4.67
2019-05-26T01:27:05.752Z,4.20
2019-05-26T01:29:37.735Z,4.10
2019-05-26T01:32:09.730Z,5.55
2019-05-26T01:34:42.185Z,3.58
2019-05-26T01:37:17.329Z,5.05
2019-05-26T01:39:52.849Z,3.62
2019-05-26T01:42:24.921Z,4.17
2019-05-26T01:44:56.924Z,4.40
2019-05-26T01:47:30.594Z,3.22
2019-05-26T01:50:02.603Z,4.90
2019-05-26T01:52:34.614Z,3.92
2019-05-26T01:55:06.872Z,3.72
2019-05-26T01:57:38.877Z,5.65
2019-05-26T02:00:11.431Z,2.92
2019-05-26T02:02:43.400Z,3.12
2019-05-26T02:05:15.578Z,4.50
2019-05-26T02:07:47.610Z,8.08
2019-05-26T02:10:20.334Z,4.03
2019-05-26T02:12:53.949Z,4.08
2019-05-26T02:15:26.479Z,3.83
2019-05-26T02:18:00.923Z,4.58
2019-05-26T02:20:32.981Z,5.90
2019-05-26T02:23:06.747Z,5.08
2019-05-26T02:25:38.904Z,6.20
2019-05-26T02:28:12.013Z,3.65
2019-05-26T02:30:44.031Z,6.30
2019-05-26T02:33:16.039Z,3.72
2019-05-26T02:35:49.650Z,3.17
2019-05-26T02:38:25.920Z,3.85
2019-05-26T02:40:57.351Z,3.67
2019-05-26T02:43:29.425Z,5.22
2019-05-26T02:46:01.416Z,4.40
2019-05-26T02:48:33.392Z,4.30
2019-05-26T02:51:08.517Z,6.17
2019-05-26T02:53:40.934Z,5.58
2019-05-26T02:56:13.202Z,5.35
2019-05-26T02:58:45.537Z,3.42
2019-05-26T03:01:17.668Z,5.55
2019-05-26T03:03:54.811Z,3.52
2019-05-26T03:06:28.883Z,3.15
2019-05-26T03:09:21.269Z,4.10
2019-05-26T03:11:38.435Z,6.78
2019-05-26T03:14:11.626Z,4.10
2019-05-26T03:16:46.959Z,4.47
2019-05-26T03:19:23.395Z,4.08
2019-05-26T03:21:59.844Z,5.80
2019-05-26T03:24:34.068Z,5.92
2019-05-26T03:27:07.424Z,6.45
2019-05-26T03:29:39.854Z,3.72
2019-05-26T03:32:12.858Z,6.35
2019-05-26T03:34:44.821Z,8.38
2019-05-26T03:37:16.768Z,3.90
2019-05-26T03:39:48.745Z,4.75
2019-05-26T03:42:20.721Z,6.00
2019-05-26T03:44:52.747Z,6.92
2019-05-26T03:47:24.762Z,4.75
2019-05-26T03:49:58.620Z,4.22
2019-05-26T03:52:31.064Z,5.83
2019-05-26T03:55:03.197Z,6.37
2019-05-26T03:57:36.841Z,4.97
2019-05-26T04:00:10.766Z,4.30
2019-05-26T04:02:42.767Z,6.05
2019-05-26T04:05:15.384Z,10.05
2019-05-26T04:07:47.333Z,5.90
2019-05-26T04:10:20.494Z,4.65
2019-05-26T04:12:52.400Z,5.67
2019-05-26T04:15:24.390Z,4.65
2019-05-26T04:17:58.206Z,5.70
2019-05-26T04:20:30.261Z,9.00
2019-05-26T04:23:02.213Z,3.58
2019-05-26T04:25:34.179Z,5.28
2019-05-26T04:28:06.619Z,7.00
2019-05-26T04:30:38.610Z,4.92
2019-05-26T04:33:10.602Z,4.67
2019-05-26T04:35:44.447Z,5.80
2019-05-26T04:38:16.487Z,5.60
2019-05-26T04:40:48.516Z,4.33
2019-05-26T04:43:20.552Z,6.22
2019-05-26T04:45:55.068Z,5.05
2019-05-26T04:48:29.724Z,4.78
2019-05-26T04:51:01.832Z,3.87
2019-05-26T04:53:33.805Z,9.03
2019-05-26T04:56:06.049Z,4.95
2019-05-26T04:58:38.109Z,4.35
2019-05-26T05:01:10.454Z,3.58
2019-05-26T05:03:43.438Z,4.08
2019-05-26T05:06:16.504Z,8.58
2019-05-26T05:08:48.444Z,4.20
2019-05-26T05:11:20.427Z,5.42
2019-05-26T05:13:52.853Z,4.60
2019-05-26T05:16:26.115Z,5.40
2019-05-26T05:18:58.078Z,4.00
2019-05-26T05:21:30.206Z,4.72
2019-05-26T05:24:02.597Z,5.03
2019-05-26T05:26:34.569Z,7.00
2019-05-26T05:29:06.626Z,6.30
2019-05-26T05:32:02.153Z,7.42
2019-05-26T05:34:34.127Z,6.17
2019-05-26T05:37:06.184Z,8.03
2019-05-26T05:39:38.129Z,5.95
2019-05-26T05:42:11.750Z,5.78
2019-05-26T05:44:43.713Z,4.25
2019-05-26T05:47:15.685Z,6.80
2019-05-26T05:49:47.645Z,7.65
2019-05-26T05:52:21.177Z,3.15
2019-05-26T05:54:53.142Z,3.25
2019-05-26T05:57:25.106Z,5.40
2019-05-26T05:59:58.057Z,5.58
2019-05-26T06:02:30.011Z,5.67
2019-05-26T06:05:02.105Z,6.67
2019-05-26T06:07:34.247Z,3.20
2019-05-26T06:10:07.914Z,5.20
2019-05-26T06:12:40.020Z,5.37
2019-05-26T06:15:15.704Z,4.87
2019-05-26T06:17:47.265Z,3.27
2019-05-26T06:20:19.694Z,3.15
2019-05-26T06:22:51.677Z,4.67
2019-05-26T06:25:23.756Z,4.40
2019-05-26T06:27:55.917Z,2.92
2019-05-26T06:30:33.779Z,2.33
2019-05-26T06:33:05.972Z,3.25
2019-05-26T06:35:38.828Z,2.27
2019-05-26T06:38:13.861Z,4.95
2019-05-26T06:40:45.927Z,5.08
2019-05-26T06:43:19.670Z,3.77
2019-05-26T06:45:51.785Z,3.17
2019-05-26T06:48:26.816Z,2.95
2019-05-26T06:50:59.898Z,5.53
2019-05-26T06:53:31.882Z,2.67
2019-05-26T06:56:04.393Z,3.55
2019-05-26T06:58:36.407Z,4.55
2019-05-26T07:01:10.053Z,3.25
2019-05-26T07:03:42.011Z,3.72
2019-05-26T07:06:14.074Z,3.72
2019-05-26T07:08:46.024Z,4.87
2019-05-26T07:11:18.037Z,4.35
2019-05-26T07:13:50.164Z,2.92
2019-05-26T07:16:36.733Z,3.00
2019-05-26T07:18:55.952Z,4.67
2019-05-26T07:21:29.758Z,3.50
2019-05-26T07:24:01.792Z,6.80
2019-05-26T07:26:33.906Z,4.47
2019-05-26T07:29:08.275Z,4.35
2019-05-26T07:31:42.521Z,5.00
2019-05-26T07:34:14.551Z,6.60
2019-05-26T07:36:46.526Z,4.92
2019-05-26T07:39:21.648Z,3.47
2019-05-26T07:42:09.420Z,3.17
2019-05-26T07:44:28.428Z,6.65
2019-05-26T07:47:02.916Z,4.33
2019-05-26T07:49:34.880Z,7.25
2019-05-26T07:52:06.946Z,6.97
2019-05-26T07:54:40.855Z,3.25
2019-05-26T07:57:12.855Z,3.05
2019-05-26T07:59:44.929Z,2.12
2019-05-26T08:02:16.949Z,5.58
2019-05-26T08:04:49.035Z,4.65
2019-05-26T08:07:23.201Z,3.42
2019-05-26T08:09:55.041Z,3.10
2019-05-26T08:12:30.433Z,2.40
2019-05-26T08:15:00.738Z,1.40
2019-05-26T08:17:35.234Z,1.55
2019-05-26T08:20:14.958Z,1.47
2019-05-26T08:22:46.947Z,4.33
2019-05-26T08:25:19.482Z,3.10
2019-05-26T08:27:51.489Z,1.20
2019-05-26T08:30:24.776Z,1.90
2019-05-26T08:32:58.002Z,2.83
2019-05-26T08:35:30.077Z,2.15
2019-05-26T08:38:03.121Z,2.22
2019-05-26T08:40:35.142Z,6.33
2019-05-26T08:43:07.567Z,4.45
2019-05-26T08:45:41.374Z,2.27
2019-05-26T08:48:13.644Z,2.80
2019-05-26T08:50:45.677Z,1.90
2019-05-26T08:53:17.753Z,2.33
2019-05-26T08:55:49.799Z,0.98
2019-05-26T08:58:22.185Z,4.53
2019-05-26T09:00:55.467Z,4.45
2019-05-26T09:03:27.428Z,3.60
2019-05-26T09:05:59.456Z,2.15
2019-05-26T09:08:33.068Z,2.62
2019-05-26T09:11:14.543Z,2.00
2019-05-26T09:13:52.505Z,1.98
2019-05-26T09:16:24.504Z,2.15
2019-05-26T09:18:56.679Z,1.40
2019-05-26T09:21:32.321Z,2.50
2019-05-26T09:24:04.455Z,15.20
2019-05-26T09:26:36.424Z,2.30
2019-05-26T09:29:08.611Z,2.33
2019-05-26T09:31:40.714Z,1.92
2019-05-26T09:34:12.774Z,1.60
2019-05-26T09:36:49.682Z,4.35
2019-05-26T09:39:22.509Z,3.30
2019-05-26T09:41:54.480Z,3.52
2019-05-26T09:44:26.541Z,3.45
2019-05-26T09:47:00.631Z,2.95
2019-05-26T09:49:32.702Z,2.72
2019-05-26T09:52:06.392Z,2.30
2019-05-26T09:54:42.555Z,3.67
2019-05-26T09:57:14.728Z,2.45
2019-05-26T09:59:46.728Z,2.60
2019-05-26T10:02:18.936Z,2.50
2019-05-26T10:04:54.504Z,5.80
2019-05-26T10:07:26.526Z,1.67
2019-05-26T10:09:58.560Z,2.27
2019-05-26T10:12:33.439Z,1.80
2019-05-26T10:15:05.994Z,1.98
2019-05-26T10:17:38.442Z,4.20
2019-05-26T10:20:11.243Z,2.22
2019-05-26T10:22:43.257Z,2.67
2019-05-26T10:25:15.509Z,2.80
2019-05-26T10:27:49.639Z,3.20
2019-05-26T10:30:21.915Z,2.42
2019-05-26T10:32:53.969Z,2.50
2019-05-26T10:35:27.261Z,2.08
2019-05-26T10:37:59.233Z,5.42
2019-05-26T10:40:31.442Z,2.40
2019-05-26T10:43:03.462Z,2.95
2019-05-26T10:45:36.071Z,1.92
2019-05-26T10:48:08.228Z,3.35
2019-05-26T10:50:40.178Z,4.80
2019-05-26T10:53:12.177Z,1.85
2019-05-26T10:55:44.149Z,2.20
2019-05-26T10:58:16.143Z,2.00
2019-05-26T11:00:48.329Z,6.22
2019-05-26T11:03:21.934Z,2.40
2019-05-26T11:05:53.931Z,3.92
2019-05-26T11:08:26.495Z,2.37
2019-05-26T11:10:58.617Z,3.00
2019-05-26T11:13:32.453Z,3.20
2019-05-26T11:16:04.731Z,3.47
2019-05-26T11:18:36.760Z,2.75
2019-05-26T11:21:12.098Z,4.40
2019-05-26T11:23:42.458Z,15.00
2019-05-26T11:26:14.490Z,3.58
2019-05-26T11:28:48.256Z,3.27
2019-05-26T11:31:20.341Z,5.85
2019-05-26T11:33:52.389Z,2.80
2019-05-26T11:36:24.426Z,3.35
2019-05-26T11:38:58.334Z,3.02
2019-05-26T11:41:30.395Z,3.95
2019-05-26T11:44:15.350Z,4.92
2019-05-26T11:46:36.172Z,3.27
2019-05-26T11:49:08.147Z,3.27
2019-05-26T11:51:42.683Z,2.55
2019-05-26T11:54:14.736Z,2.22
2019-05-26T11:56:48.610Z,2.60
2019-05-26T11:59:20.667Z,4.28
2019-05-26T12:01:52.736Z,3.12
2019-05-26T12:04:24.761Z,5.00
2019-05-26T12:06:59.682Z,2.35
2019-05-26T12:09:31.671Z,4.00
2019-05-26T12:12:05.624Z,5.65
2019-05-26T12:14:37.564Z,4.55
2019-05-26T12:17:12.106Z,3.05
2019-05-26T12:19:44.181Z,5.65
2019-05-26T12:22:16.175Z,2.62
2019-05-26T12:24:48.299Z,3.72
2019-05-26T12:27:20.314Z,3.08
2019-05-26T12:29:52.338Z,3.77
2019-05-26T12:32:24.368Z,2.55
2019-05-26T12:34:56.355Z,3.17
2019-05-26T12:37:28.375Z,2.67
2019-05-26T12:40:00.384Z,1.77
2019-05-26T12:42:35.447Z,3.92
2019-05-26T12:45:08.532Z,3.72
2019-05-26T12:47:40.777Z,1.62
2019-05-26T12:50:13.264Z,1.42
2019-05-26T12:52:45.397Z,1.85
2019-05-26T12:55:18.091Z,1.80
2019-05-26T12:57:50.115Z,1.25
2019-05-26T13:00:25.266Z,1.35
2019-05-26T13:02:58.552Z,0.80
2019-05-26T13:05:30.601Z,1.00
2019-05-26T13:08:02.580Z,4.28
2019-05-26T13:10:34.619Z,1.20
2019-05-26T13:13:06.646Z,0.70
2019-05-26T13:15:38.716Z,2.05
2019-05-26T13:18:10.868Z,1.00
2019-05-26T13:20:42.954Z,1.95
2019-05-26T13:23:14.922Z,7.60
2019-05-26T13:25:55.799Z,1.40
2019-05-26T13:28:27.776Z,1.92
2019-05-26T13:31:00.176Z,0.98
2019-05-26T13:33:32.194Z,0.98
2019-05-26T13:36:04.407Z,1.37
2019-05-26T13:38:36.501Z,1.40
2019-05-26T13:41:10.164Z,1.42
2019-05-26T13:43:42.196Z,0.82
2019-05-26T13:46:14.349Z,1.25
2019-05-26T13:48:47.472Z,2.27
2019-05-26T13:51:21.011Z,0.80
2019-05-26T13:53:52.971Z,2.92
2019-05-26T13:56:25.006Z,1.87
2019-05-26T13:58:57.022Z,7.45
2019-05-26T14:01:29.013Z,1.90
2019-05-26T14:04:02.938Z,5.37
2019-05-26T14:06:35.020Z,3.30
2019-05-26T14:09:10.046Z,6.20
2019-05-26T14:11:42.321Z,4.80
2019-05-26T14:14:14.305Z,5.22
2019-05-26T14:16:47.950Z,5.30
2019-05-26T14:19:21.640Z,3.95
2019-05-26T14:21:53.750Z,5.00
2019-05-26T14:24:25.741Z,5.65
2019-05-26T14:26:57.960Z,6.78
2019-05-26T14:29:31.797Z,4.78
2019-05-26T14:32:03.907Z,2.33
2019-05-26T14:34:36.012Z,3.02
2019-05-26T14:37:07.963Z,2.80
2019-05-26T14:39:40.010Z,2.30
2019-05-26T14:42:12.346Z,3.98
2019-05-26T14:44:45.155Z,4.72
2019-05-26T14:47:17.261Z,2.42
2019-05-26T14:49:52.351Z,4.90
2019-05-26T14:52:24.389Z,5.15
2019-05-26T14:54:57.272Z,3.35
2019-05-26T14:57:31.006Z,3.90
2019-05-26T15:00:03.211Z,4.20
2019-05-26T15:02:35.498Z,3.85
2019-05-26T15:05:09.687Z,6.65
2019-05-26T15:07:41.677Z,3.98
2019-05-26T15:10:17.142Z,3.45
2019-05-26T15:12:49.093Z,2.77
2019-05-26T15:15:21.286Z,3.55
2019-05-26T15:17:53.675Z,5.00
2019-05-26T15:20:25.724Z,3.22
2019-05-26T15:22:57.777Z,2.72
2019-05-26T15:25:29.808Z,3.72
2019-05-26T15:28:02.024Z,4.62
2019-05-26T15:30:36.893Z,6.35
2019-05-26T15:33:09.034Z,4.33
2019-05-26T15:35:45.021Z,3.55
2019-05-26T15:38:17.159Z,4.15
2019-05-26T15:40:50.550Z,9.25
2019-05-26T15:43:22.835Z,5.15
2019-05-26T15:45:54.901Z,7.72
2019-05-26T15:48:26.898Z,15.83
2019-05-26T15:50:58.991Z,6.37
2019-05-26T15:53:32.034Z,6.28
2019-05-26T15:56:05.802Z,7.03
2019-05-26T15:58:37.787Z,6.97
2019-05-26T16:01:10.326Z,5.92
2019-05-26T16:03:45.246Z,10.93
2019-05-26T16:06:18.517Z,7.87
2019-05-26T16:08:50.533Z,8.43
2019-05-26T16:11:22.581Z,6.85
2019-05-26T16:13:56.227Z,5.70
2019-05-26T16:16:40.539Z,6.05
2019-05-26T16:19:04.610Z,15.58
2019-05-26T16:21:38.828Z,8.20
2019-05-26T16:24:10.853Z,5.95
2019-05-26T16:26:43.076Z,9.13
2019-05-26T16:29:16.698Z,8.43
2019-05-26T16:31:49.044Z,10.95
2019-05-26T16:34:22.391Z,8.45
2019-05-26T16:36:54.492Z,8.08
2019-05-26T16:39:36.643Z,9.85
2019-05-26T16:42:02.575Z,7.22
2019-05-26T16:44:34.856Z,10.08
2019-05-26T16:47:08.681Z,12.95
2019-05-26T16:49:41.567Z,8.50
2019-05-26T16:52:13.704Z,5.83
2019-05-26T16:54:45.763Z,11.97
2019-05-26T16:57:17.847Z,9.13
2019-05-26T16:59:50.362Z,8.10
2019-05-26T17:02:22.465Z,7.55
2019-05-26T17:04:56.222Z,9.50
2019-05-26T17:07:28.392Z,7.92
2019-05-26T17:10:00.521Z,11.03
2019-05-26T17:12:32.591Z,8.58
2019-05-26T17:15:04.888Z,9.98
2019-05-26T17:17:37.010Z,9.45
2019-05-26T17:20:10.359Z,11.85
2019-05-26T17:22:42.509Z,12.90
2019-05-26T17:25:14.527Z,9.15
2019-05-26T17:27:47.650Z,7.67
2019-05-26T17:30:22.266Z,9.88
2019-05-26T17:32:54.511Z,7.22
2019-05-26T17:35:26.542Z,4.45
2019-05-26T17:37:59.051Z,9.18
2019-05-26T17:40:32.339Z,7.50
2019-05-26T17:43:04.543Z,8.68
2019-05-26T17:45:38.249Z,8.80
2019-05-26T17:48:11.213Z,12.28
2019-05-26T17:50:43.486Z,11.53
2019-05-26T17:53:15.984Z,8.43
2019-05-26T17:55:49.680Z,10.80
2019-05-26T17:58:23.081Z,10.88
2019-05-26T18:00:55.164Z,10.10
2019-05-26T18:03:27.143Z,9.03
2019-05-26T18:05:59.231Z,8.95
2019-05-26T18:08:36.303Z,10.68
2019-05-26T18:11:07.341Z,10.20
2019-05-26T18:13:39.498Z,12.23
2019-05-26T18:16:12.070Z,9.48
2019-05-26T18:18:45.721Z,10.28
2019-05-26T18:21:22.707Z,10.68
2019-05-26T18:23:54.817Z,8.00
2019-05-26T18:26:26.813Z,8.40
2019-05-26T18:28:58.851Z,12.80
2019-05-26T18:31:30.929Z,7.30
2019-05-26T18:34:03.056Z,7.92
2019-05-26T18:36:36.323Z,6.50
2019-05-26T18:39:09.985Z,10.18
2019-05-26T18:41:43.991Z,10.45
2019-05-26T18:44:16.023Z,8.78
2019-05-26T18:46:48.088Z,8.85
2019-05-26T18:49:20.105Z,9.23
2019-05-26T18:51:54.475Z,9.00
2019-05-26T18:54:26.563Z,7.08
2019-05-26T18:56:59.811Z,10.38
2019-05-26T18:59:31.775Z,11.40
2019-05-26T19:02:03.788Z,8.70
2019-05-26T19:04:35.900Z,9.70
2019-05-26T19:07:08.179Z,8.23
2019-05-26T19:09:40.659Z,6.30
2019-05-26T19:12:12.914Z,6.62
2019-05-26T19:14:45.031Z,6.72
2019-05-26T19:17:17.294Z,8.25
2019-05-26T19:19:49.314Z,9.88
2019-05-26T19:22:23.277Z,12.85
2019-05-26T19:24:55.417Z,12.65
2019-05-26T19:27:27.559Z,15.13
2019-05-26T19:29:59.601Z,15.88
2019-05-26T19:32:31.640Z,18.77
2019-05-26T19:35:04.309Z,13.98
2019-05-26T19:37:36.537Z,13.72
2019-05-26T19:40:10.136Z,18.45
2019-05-26T19:42:42.371Z,16.25
2019-05-26T19:45:15.033Z,11.30
2019-05-26T19:47:47.089Z,17.55
2019-05-26T19:50:20.827Z,15.00
2019-05-26T19:52:54.441Z,25.97
2019-05-26T19:55:30.877Z,13.72
2019-05-26T19:58:02.868Z,15.08
2019-05-26T20:00:40.445Z,13.32
2019-05-26T23:19:18.012Z,16.62
2019-05-26T23:21:37.821Z,21.85
2019-05-26T23:24:09.796Z,20.30
2019-05-26T23:26:41.767Z,18.48
2019-05-26T23:29:13.767Z,25.80
2019-05-26T23:31:45.725Z,30.12
2019-05-26T23:34:17.675Z,24.52
2019-05-26T23:36:56.107Z,20.32
2019-05-26T23:39:28.542Z,19.25
2019-05-26T23:42:00.553Z,19.75
2019-05-26T23:44:32.964Z,20.40
2019-05-26T23:47:12.337Z,20.62
2019-05-26T23:49:44.333Z,19.60
2019-05-26T23:52:19.310Z,18.23
2019-05-26T23:54:52.056Z,18.45
2019-05-26T23:57:23.993Z,21.35
2019-05-26T23:59:56.016Z,22.77
